createdAt,value
2023-03-21T00:04:33.190Z,5.00
2023-03-21T00:09:40.861Z,5.30
2023-03-21T00:14:43.609Z,6.70
2023-03-21T00:19:46.651Z,9.77
2023-03-21T00:24:49.262Z,6.25
2023-03-21T00:29:51.971Z,8.10
2023-03-21T00:35:13.706Z,9.18
2023-03-21T00:40:27.666Z,9.52
2023-03-21T00:45:33.663Z,9.95
2023-03-21T00:50:39.142Z,11.13
2023-03-21T00:55:42.241Z,12.65
2023-03-21T01:00:47.236Z,10.38
2023-03-21T01:06:08.264Z,9.98
2023-03-21T01:11:18.486Z,9.60
2023-03-21T01:16:21.138Z,8.63
2023-03-21T01:21:23.950Z,9.82
2023-03-21T01:26:26.544Z,9.07
2023-03-21T01:31:29.180Z,7.25
2023-03-21T01:36:32.032Z,9.25
2023-03-21T01:41:44.650Z,8.43
2023-03-21T01:47:13.039Z,7.90
2023-03-21T01:52:36.658Z,8.23
2023-03-21T01:58:04.002Z,7.97
2023-03-21T02:03:26.304Z,7.53
2023-03-21T02:08:42.541Z,7.63
2023-03-21T02:13:53.598Z,8.88
2023-03-21T02:19:08.250Z,9.10
2023-03-21T02:24:29.316Z,8.35
2023-03-21T02:29:47.188Z,9.23
2023-03-21T02:34:52.807Z,10.88
2023-03-21T02:40:14.896Z,10.25
2023-03-21T02:45:26.172Z,12.60
2023-03-21T02:50:55.660Z,12.80
2023-03-21T02:56:01.194Z,9.93
2023-03-21T03:01:09.321Z,9.82
2023-03-21T03:06:27.201Z,8.55
2023-03-21T03:11:42.179Z,6.85
2023-03-21T03:17:07.886Z,7.95
2023-03-21T03:22:16.518Z,6.45
2023-03-21T03:27:25.150Z,5.40
2023-03-21T03:32:47.357Z,4.50
2023-03-21T03:37:56.835Z,5.18
2023-03-21T03:43:07.724Z,5.65
2023-03-21T03:48:26.588Z,4.28
2023-03-21T03:53:38.332Z,4.28
2023-03-21T03:58:46.040Z,5.18
2023-03-21T04:04:03.559Z,5.15
2023-03-21T04:09:21.045Z,5.78
2023-03-21T04:14:35.610Z,5.80
2023-03-21T04:19:46.606Z,6.35
2023-03-21T04:24:49.439Z,6.57
2023-03-21T04:29:52.181Z,6.15
2023-03-21T04:35:21.624Z,6.97
2023-03-21T04:40:25.775Z,6.50
2023-03-21T04:45:31.109Z,6.75
2023-03-21T04:50:33.693Z,7.90
2023-03-21T04:55:37.382Z,8.23
2023-03-21T05:00:40.901Z,8.60
2023-03-21T05:05:43.560Z,8.52
2023-03-21T05:10:46.716Z,8.55
2023-03-21T05:15:49.638Z,8.57
2023-03-21T05:20:54.476Z,9.25
2023-03-21T05:25:58.412Z,9.75
2023-03-21T05:31:20.677Z,9.82
2023-03-21T05:36:27.431Z,11.35
2023-03-21T05:41:30.575Z,11.52
2023-03-21T05:46:34.883Z,12.45
2023-03-21T05:51:38.234Z,14.02
2023-03-21T05:56:42.284Z,9.18
2023-03-21T06:01:47.698Z,10.05
2023-03-21T06:06:53.777Z,9.10
2023-03-21T06:11:58.696Z,5.97
2023-03-21T06:22:32.878Z,9.15
2023-03-21T06:27:37.464Z,13.85
2023-03-21T06:32:42.400Z,11.35
2023-03-21T06:37:49.651Z,11.63
2023-03-21T06:42:53.788Z,11.60
2023-03-21T06:47:56.470Z,12.57
2023-03-21T06:53:07.014Z,10.75
2023-03-21T06:58:25.409Z,11.70
2023-03-21T07:03:30.158Z,10.43
2023-03-21T07:08:37.443Z,11.23
2023-03-21T07:13:40.916Z,8.98
2023-03-21T07:18:44.230Z,10.02
2023-03-21T07:23:50.426Z,13.05
2023-03-21T07:28:53.249Z,12.55
2023-03-21T07:33:56.897Z,16.63
2023-03-21T07:38:59.637Z,17.90
2023-03-21T07:44:03.958Z,15.93
2023-03-21T07:49:09.238Z,18.25
2023-03-21T07:54:11.996Z,12.88
2023-03-21T07:59:14.644Z,12.95
2023-03-21T08:04:17.312Z,9.75
2023-03-21T08:09:20.073Z,9.50
2023-03-21T08:14:22.703Z,12.48
2023-03-21T08:19:27.427Z,12.48
2023-03-21T08:24:30.456Z,10.55
2023-03-21T08:34:37.726Z,12.10
2023-03-21T08:39:43.771Z,11.02
2023-03-21T08:44:52.557Z,11.15
2023-03-21T09:00:18.378Z,11.30
2023-03-21T09:05:27.588Z,8.40
2023-03-21T09:10:32.977Z,8.95
2023-03-21T09:15:35.678Z,9.55
2023-03-21T09:20:38.607Z,8.50
2023-03-21T09:25:42.549Z,8.82
2023-03-21T09:30:45.200Z,7.43
2023-03-21T09:35:49.093Z,8.07
2023-03-21T09:41:10.244Z,7.93
2023-03-21T09:46:27.944Z,9.05
2023-03-21T09:51:36.020Z,9.20
2023-03-21T09:56:42.751Z,11.50
2023-03-21T10:01:48.790Z,9.38
2023-03-21T10:07:02.102Z,8.88
2023-03-21T10:12:15.027Z,9.77
2023-03-21T10:17:34.365Z,8.38
2023-03-21T10:22:37.700Z,9.63
2023-03-21T10:27:40.842Z,8.98
2023-03-21T10:32:43.431Z,9.90
2023-03-21T10:37:46.945Z,9.25
2023-03-21T10:42:49.545Z,10.65
2023-03-21T10:47:52.814Z,10.35
2023-03-21T10:53:00.859Z,8.77
2023-03-21T10:58:19.132Z,7.85
2023-03-21T11:03:34.165Z,8.50
2023-03-21T11:08:45.267Z,8.15
2023-03-21T11:13:57.472Z,7.22
2023-03-21T11:19:13.751Z,9.15
2023-03-21T11:29:36.350Z,7.55
2023-03-21T11:39:56.661Z,7.22
2023-03-21T11:45:11.793Z,6.78
2023-03-21T11:50:14.396Z,7.10
2023-03-21T11:55:33.285Z,7.35
2023-03-21T12:00:57.554Z,6.47
2023-03-21T12:06:06.687Z,6.43
2023-03-21T12:11:21.629Z,6.70
2023-03-21T12:16:49.800Z,7.93
2023-03-21T12:22:06.772Z,7.05
2023-03-21T12:27:24.505Z,6.38
2023-03-21T12:32:58.196Z,7.15
2023-03-21T12:38:18.566Z,15.68
2023-03-21T12:43:41.332Z,7.05
2023-03-21T12:48:48.636Z,8.40
2023-03-21T12:53:56.955Z,11.15
2023-03-21T12:59:23.177Z,10.60
2023-03-21T13:04:34.873Z,15.02
2023-03-21T13:09:40.751Z,12.90
2023-03-21T13:14:57.212Z,10.43
2023-03-21T13:20:11.104Z,9.43
2023-03-21T13:25:21.592Z,12.02
2023-03-21T13:30:27.462Z,15.65
2023-03-21T13:35:54.651Z,15.35
2023-03-21T13:41:01.964Z,15.23
2023-03-21T13:46:11.623Z,10.55
2023-03-21T13:51:14.583Z,9.98
2023-03-21T13:56:27.896Z,9.85
2023-03-21T14:02:15.916Z,12.57
2023-03-21T14:07:35.849Z,9.30
2023-03-21T14:13:12.295Z,8.13
2023-03-21T14:18:28.445Z,9.98
2023-03-21T14:23:44.440Z,8.25
2023-03-21T14:28:52.407Z,8.85
2023-03-21T14:33:59.168Z,9.43
2023-03-21T14:39:13.061Z,8.32
2023-03-21T14:44:27.138Z,7.72
2023-03-21T14:49:33.044Z,8.95
2023-03-21T14:54:38.449Z,10.98
2023-03-21T14:59:45.754Z,11.63
2023-03-21T15:04:56.075Z,8.25
2023-03-21T15:10:04.105Z,9.73
2023-03-21T15:15:08.040Z,11.38
2023-03-21T15:20:21.404Z,16.20
2023-03-21T15:25:33.409Z,19.25
2023-03-21T15:30:36.342Z,22.77
2023-03-21T15:35:42.048Z,12.32
2023-03-21T15:40:45.747Z,12.07
2023-03-21T15:45:57.259Z,12.38
2023-03-21T15:51:07.553Z,12.00
2023-03-21T15:56:18.317Z,11.93
2023-03-21T16:01:28.010Z,10.27
2023-03-21T16:07:12.822Z,10.43
2023-03-21T16:12:34.931Z,12.43
2023-03-21T16:17:43.215Z,13.35
2023-03-21T16:22:55.426Z,12.82
2023-03-21T16:28:13.664Z,14.52
2023-03-21T16:33:22.633Z,16.38
2023-03-21T16:38:32.644Z,20.55
2023-03-21T16:43:43.429Z,15.75
2023-03-21T16:48:49.235Z,12.43
2023-03-21T16:53:52.910Z,15.88
2023-03-21T16:58:57.353Z,11.57
2023-03-21T17:04:00.457Z,16.10
2023-03-21T17:09:05.947Z,13.93
2023-03-21T17:14:10.224Z,10.68
2023-03-21T17:19:20.359Z,11.85
2023-03-21T17:24:35.685Z,13.60
2023-03-21T17:29:39.724Z,12.80
2023-03-21T17:34:43.008Z,11.90
2023-03-21T17:39:46.373Z,13.15
2023-03-21T17:44:48.978Z,10.98
2023-03-21T17:49:53.397Z,12.57
2023-03-21T17:54:56.019Z,11.20
2023-03-21T17:59:58.704Z,12.13
2023-03-21T18:05:01.654Z,10.13
2023-03-21T18:15:14.389Z,10.48
2023-03-21T18:20:21.244Z,11.05
2023-03-21T18:25:24.928Z,11.65
2023-03-21T18:30:50.112Z,10.55
2023-03-21T18:35:58.668Z,12.60
2023-03-21T18:41:02.185Z,10.80
2023-03-21T18:46:07.845Z,12.32
2023-03-21T18:51:10.866Z,12.38
2023-03-21T18:56:57.657Z,14.48
2023-03-21T19:01:37.516Z,14.10
2023-03-21T19:06:41.659Z,14.30
2023-03-21T19:11:44.338Z,13.80
2023-03-21T19:17:26.996Z,11.43
2023-03-21T19:22:11.547Z,13.55
2023-03-21T19:27:15.000Z,10.52
2023-03-21T19:32:17.556Z,11.73
2023-03-21T19:37:20.395Z,12.02
2023-03-21T19:42:28.373Z,10.63
2023-03-21T19:47:32.953Z,9.75
2023-03-21T19:52:37.738Z,9.77
2023-03-21T19:57:40.322Z,11.75
2023-03-21T20:02:45.531Z,12.98
2023-03-21T20:07:48.679Z,9.40
2023-03-21T20:12:51.580Z,9.88
2023-03-21T20:17:54.234Z,9.77
2023-03-21T20:23:06.660Z,14.07
2023-03-21T20:28:16.258Z,9.85
2023-03-21T20:33:25.426Z,10.27
2023-03-21T20:38:27.963Z,10.75
2023-03-21T20:48:54.002Z,8.80
2023-03-21T20:53:56.921Z,9.63
2023-03-21T20:59:15.345Z,10.40
2023-03-21T21:04:20.811Z,10.93
2023-03-21T21:09:23.805Z,12.07
2023-03-21T21:14:26.306Z,12.15
2023-03-21T21:19:28.839Z,11.80
2023-03-21T21:24:34.177Z,12.63
2023-03-21T21:29:37.428Z,13.13
2023-03-21T21:34:39.929Z,14.13
2023-03-21T21:39:42.484Z,14.93
2023-03-21T21:44:45.455Z,13.60
2023-03-21T21:49:47.974Z,14.50
2023-03-21T21:54:50.821Z,15.93
2023-03-21T21:59:54.618Z,15.68
2023-03-21T22:04:57.624Z,15.73
2023-03-21T22:10:00.206Z,15.60
2023-03-21T22:15:04.420Z,14.88
2023-03-21T22:20:10.028Z,16.92
2023-03-21T22:25:15.232Z,15.15
2023-03-21T22:30:18.823Z,16.15
2023-03-21T22:35:21.480Z,16.52
2023-03-21T22:40:24.576Z,16.33
2023-03-21T22:45:27.191Z,16.00
2023-03-21T22:50:29.904Z,15.82
2023-03-21T22:55:32.468Z,15.98
2023-03-21T23:00:34.955Z,14.38
2023-03-21T23:05:41.968Z,13.95
2023-03-21T23:10:46.179Z,11.35
2023-03-21T23:15:48.827Z,10.48
2023-03-21T23:20:51.698Z,8.90
2023-03-21T23:25:54.310Z,9.75
2023-03-21T23:30:56.992Z,7.22
2023-03-21T23:35:59.497Z,8.13
2023-03-21T23:41:04.176Z,7.43
2023-03-21T23:46:07.514Z,7.15
2023-03-21T23:51:12.114Z,7.18
2023-03-21T23:56:21.403Z,6.68
